sensor_id;sensor_type;location;lat;lon;timestamp;P1;durP1;ratioP1;P2;durP2;ratioP2
53062;SDS011;40529;52.172;10.548;2023-08-21T00:01:00;11.60;;;6.47;;
53062;SDS011;40529;52.172;10.548;2023-08-21T00:03:26;11.75;;;6.50;;
53062;SDS011;40529;52.172;10.548;2023-08-21T00:05:52;8.30;;;6.07;;
53062;SDS011;40529;52.172;10.548;2023-08-21T00:08:18;10.50;;;5.95;;
53062;SDS011;40529;52.172;10.548;2023-08-21T00:10:44;7.72;;;5.50;;
53062;SDS011;40529;52.172;10.548;2023-08-21T00:13:10;9.30;;;5.63;;
53062;SDS011;40529;52.172;10.548;2023-08-21T00:15:37;6.15;;;5.40;;
53062;SDS011;40529;52.172;10.548;2023-08-21T00:18:03;8.00;;;5.38;;
53062;SDS011;40529;52.172;10.548;2023-08-21T00:20:30;6.80;;;5.63;;
53062;SDS011;40529;52.172;10.548;2023-08-21T00:22:56;8.70;;;6.43;;
53062;SDS011;40529;52.172;10.548;2023-08-21T00:25:22;6.90;;;5.63;;
53062;SDS011;40529;52.172;10.548;2023-08-21T00:27:48;8.13;;;5.68;;
53062;SDS011;40529;52.172;10.548;2023-08-21T00:30:14;6.82;;;5.80;;
53062;SDS011;40529;52.172;10.548;2023-08-21T00:32:41;6.60;;;5.72;;
53062;SDS011;40529;52.172;10.548;2023-08-21T00:35:07;10.15;;;5.70;;
53062;SDS011;40529;52.172;10.548;2023-08-21T00:37:34;7.55;;;5.43;;
53062;SDS011;40529;52.172;10.548;2023-08-21T00:40:00;8.20;;;5.35;;
53062;SDS011;40529;52.172;10.548;2023-08-21T00:42:26;8.07;;;5.85;;
53062;SDS011;40529;52.172;10.548;2023-08-21T00:44:52;6.63;;;5.85;;
53062;SDS011;40529;52.172;10.548;2023-08-21T00:47:18;6.95;;;5.80;;
53062;SDS011;40529;52.172;10.548;2023-08-21T00:49:44;9.32;;;5.90;;
53062;SDS011;40529;52.172;10.548;2023-08-21T00:52:13;7.32;;;5.75;;
53062;SDS011;40529;52.172;10.548;2023-08-21T00:54:40;6.10;;;5.50;;
53062;SDS011;40529;52.172;10.548;2023-08-21T00:57:06;6.35;;;5.75;;
53062;SDS011;40529;52.172;10.548;2023-08-21T00:59:32;6.35;;;5.75;;
53062;SDS011;40529;52.172;10.548;2023-08-21T01:01:59;7.93;;;5.60;;
53062;SDS011;40529;52.172;10.548;2023-08-21T01:04:25;6.70;;;5.97;;
53062;SDS011;40529;52.172;10.548;2023-08-21T01:06:51;6.53;;;5.50;;
53062;SDS011;40529;52.172;10.548;2023-08-21T01:14:43;9.52;;;6.65;;
53062;SDS011;40529;52.172;10.548;2023-08-21T01:17:11;6.30;;;5.68;;
53062;SDS011;40529;52.172;10.548;2023-08-21T01:19:43;5.93;;;5.43;;
53062;SDS011;40529;52.172;10.548;2023-08-21T01:22:09;8.88;;;6.15;;
53062;SDS011;40529;52.172;10.548;2023-08-21T01:24:36;7.47;;;6.10;;
53062;SDS011;40529;52.172;10.548;2023-08-21T01:27:02;7.32;;;5.90;;
53062;SDS011;40529;52.172;10.548;2023-08-21T01:29:28;10.23;;;6.20;;
53062;SDS011;40529;52.172;10.548;2023-08-21T01:32:00;6.90;;;5.55;;
53062;SDS011;40529;52.172;10.548;2023-08-21T01:34:28;7.80;;;6.00;;
53062;SDS011;40529;52.172;10.548;2023-08-21T01:36:54;10.80;;;7.00;;
53062;SDS011;40529;52.172;10.548;2023-08-21T01:39:21;9.23;;;7.00;;
53062;SDS011;40529;52.172;10.548;2023-08-21T01:41:47;7.13;;;6.43;;
53062;SDS011;40529;52.172;10.548;2023-08-21T01:44:13;10.20;;;6.70;;
53062;SDS011;40529;52.172;10.548;2023-08-21T01:46:39;8.65;;;6.93;;
53062;SDS011;40529;52.172;10.548;2023-08-21T01:49:05;9.88;;;7.18;;
53062;SDS011;40529;52.172;10.548;2023-08-21T01:51:31;9.00;;;7.57;;
53062;SDS011;40529;52.172;10.548;2023-08-21T01:53:57;7.95;;;7.10;;
53062;SDS011;40529;52.172;10.548;2023-08-21T01:56:23;7.82;;;6.97;;
53062;SDS011;40529;52.172;10.548;2023-08-21T01:58:49;9.63;;;6.80;;
53062;SDS011;40529;52.172;10.548;2023-08-21T02:01:15;7.82;;;6.75;;
53062;SDS011;40529;52.172;10.548;2023-08-21T02:03:42;9.65;;;7.55;;
53062;SDS011;40529;52.172;10.548;2023-08-21T02:06:08;8.50;;;6.53;;
53062;SDS011;40529;52.172;10.548;2023-08-21T02:08:34;8.30;;;7.50;;
53062;SDS011;40529;52.172;10.548;2023-08-21T02:11:01;7.95;;;6.60;;
53062;SDS011;40529;52.172;10.548;2023-08-21T02:13:27;11.63;;;7.32;;
53062;SDS011;40529;52.172;10.548;2023-08-21T02:15:53;9.68;;;7.63;;
53062;SDS011;40529;52.172;10.548;2023-08-21T02:18:19;10.25;;;6.68;;
53062;SDS011;40529;52.172;10.548;2023-08-21T02:20:46;9.93;;;7.65;;
53062;SDS011;40529;52.172;10.548;2023-08-21T02:23:13;8.25;;;7.40;;
53062;SDS011;40529;52.172;10.548;2023-08-21T02:25:40;9.20;;;8.30;;
53062;SDS011;40529;52.172;10.548;2023-08-21T02:28:06;9.85;;;7.68;;
53062;SDS011;40529;52.172;10.548;2023-08-21T02:30:32;11.45;;;8.45;;
53062;SDS011;40529;52.172;10.548;2023-08-21T02:32:58;8.57;;;7.35;;
53062;SDS011;40529;52.172;10.548;2023-08-21T02:35:24;8.38;;;7.25;;
53062;SDS011;40529;52.172;10.548;2023-08-21T02:37:50;7.88;;;7.07;;
53062;SDS011;40529;52.172;10.548;2023-08-21T02:40:16;9.32;;;7.20;;
53062;SDS011;40529;52.172;10.548;2023-08-21T02:42:42;9.18;;;7.70;;
53062;SDS011;40529;52.172;10.548;2023-08-21T02:45:09;9.40;;;8.10;;
53062;SDS011;40529;52.172;10.548;2023-08-21T02:47:38;8.18;;;7.22;;
53062;SDS011;40529;52.172;10.548;2023-08-21T02:50:05;8.32;;;7.22;;
53062;SDS011;40529;52.172;10.548;2023-08-21T02:52:31;9.57;;;7.85;;
53062;SDS011;40529;52.172;10.548;2023-08-21T02:54:58;9.05;;;8.07;;
53062;SDS011;40529;52.172;10.548;2023-08-21T02:57:24;9.15;;;8.25;;
53062;SDS011;40529;52.172;10.548;2023-08-21T02:59:50;8.18;;;7.40;;
53062;SDS011;40529;52.172;10.548;2023-08-21T03:02:17;10.32;;;7.93;;
53062;SDS011;40529;52.172;10.548;2023-08-21T03:04:43;11.65;;;9.20;;
53062;SDS011;40529;52.172;10.548;2023-08-21T03:07:09;12.52;;;8.95;;
53062;SDS011;40529;52.172;10.548;2023-08-21T03:09:36;9.52;;;8.55;;
53062;SDS011;40529;52.172;10.548;2023-08-21T03:12:02;11.63;;;8.23;;
53062;SDS011;40529;52.172;10.548;2023-08-21T03:14:28;12.43;;;8.35;;
53062;SDS011;40529;52.172;10.548;2023-08-21T03:16:54;9.77;;;8.60;;
53062;SDS011;40529;52.172;10.548;2023-08-21T03:19:20;9.88;;;8.65;;
53062;SDS011;40529;52.172;10.548;2023-08-21T03:21:46;13.00;;;9.00;;
53062;SDS011;40529;52.172;10.548;2023-08-21T03:24:12;8.80;;;7.85;;
53062;SDS011;40529;52.172;10.548;2023-08-21T03:26:38;10.77;;;9.02;;
53062;SDS011;40529;52.172;10.548;2023-08-21T03:29:04;11.13;;;8.98;;
53062;SDS011;40529;52.172;10.548;2023-08-21T03:31:30;12.38;;;9.10;;
53062;SDS011;40529;52.172;10.548;2023-08-21T03:33:57;10.57;;;8.95;;
53062;SDS011;40529;52.172;10.548;2023-08-21T03:36:23;10.50;;;8.68;;
53062;SDS011;40529;52.172;10.548;2023-08-21T03:38:59;11.23;;;8.80;;
53062;SDS011;40529;52.172;10.548;2023-08-21T03:41:25;12.10;;;8.52;;
53062;SDS011;40529;52.172;10.548;2023-08-21T03:43:51;9.93;;;8.68;;
53062;SDS011;40529;52.172;10.548;2023-08-21T03:46:17;10.60;;;9.27;;
53062;SDS011;40529;52.172;10.548;2023-08-21T03:48:43;10.52;;;8.70;;
53062;SDS011;40529;52.172;10.548;2023-08-21T03:51:09;11.23;;;8.70;;
53062;SDS011;40529;52.172;10.548;2023-08-21T03:53:35;11.43;;;9.13;;
53062;SDS011;40529;52.172;10.548;2023-08-21T03:56:01;10.52;;;9.30;;
53062;SDS011;40529;52.172;10.548;2023-08-21T03:58:27;12.55;;;9.80;;
53062;SDS011;40529;52.172;10.548;2023-08-21T04:00:53;14.43;;;10.15;;
53062;SDS011;40529;52.172;10.548;2023-08-21T04:03:19;13.93;;;11.32;;
53062;SDS011;40529;52.172;10.548;2023-08-21T04:05:45;11.95;;;10.52;;
53062;SDS011;40529;52.172;10.548;2023-08-21T04:08:11;12.57;;;10.43;;
53062;SDS011;40529;52.172;10.548;2023-08-21T04:10:37;11.77;;;10.30;;
53062;SDS011;40529;52.172;10.548;2023-08-21T04:13:07;12.93;;;10.90;;
53062;SDS011;40529;52.172;10.548;2023-08-21T04:15:33;13.20;;;10.10;;
53062;SDS011;40529;52.172;10.548;2023-08-21T04:18:02;12.50;;;10.10;;
53062;SDS011;40529;52.172;10.548;2023-08-21T04:20:28;13.18;;;10.70;;
53062;SDS011;40529;52.172;10.548;2023-08-21T04:22:54;11.30;;;10.20;;
53062;SDS011;40529;52.172;10.548;2023-08-21T04:25:20;13.70;;;10.68;;
53062;SDS011;40529;52.172;10.548;2023-08-21T04:27:46;13.00;;;10.45;;
53062;SDS011;40529;52.172;10.548;2023-08-21T04:30:13;11.25;;;10.15;;
53062;SDS011;40529;52.172;10.548;2023-08-21T04:32:39;10.95;;;9.68;;
53062;SDS011;40529;52.172;10.548;2023-08-21T04:35:05;13.15;;;9.98;;
53062;SDS011;40529;52.172;10.548;2023-08-21T04:37:33;11.55;;;10.35;;
53062;SDS011;40529;52.172;10.548;2023-08-21T04:39:59;11.43;;;10.25;;
53062;SDS011;40529;52.172;10.548;2023-08-21T04:42:25;15.02;;;10.40;;
53062;SDS011;40529;52.172;10.548;2023-08-21T04:44:51;13.52;;;11.35;;
53062;SDS011;40529;52.172;10.548;2023-08-21T04:49:47;11.52;;;10.30;;
53062;SDS011;40529;52.172;10.548;2023-08-21T04:52:13;11.88;;;10.10;;
53062;SDS011;40529;52.172;10.548;2023-08-21T04:54:39;14.68;;;10.55;;
53062;SDS011;40529;52.172;10.548;2023-08-21T04:57:05;15.63;;;12.05;;
53062;SDS011;40529;52.172;10.548;2023-08-21T04:59:31;11.68;;;10.10;;
53062;SDS011;40529;52.172;10.548;2023-08-21T05:01:57;12.00;;;10.82;;
53062;SDS011;40529;52.172;10.548;2023-08-21T05:04:23;12.07;;;10.35;;
53062;SDS011;40529;52.172;10.548;2023-08-21T05:06:49;16.20;;;12.93;;
53062;SDS011;40529;52.172;10.548;2023-08-21T05:09:15;16.60;;;11.70;;
53062;SDS011;40529;52.172;10.548;2023-08-21T05:11:41;15.05;;;11.98;;
53062;SDS011;40529;52.172;10.548;2023-08-21T05:14:07;14.70;;;12.25;;
53062;SDS011;40529;52.172;10.548;2023-08-21T05:16:33;15.90;;;12.00;;
53062;SDS011;40529;52.172;10.548;2023-08-21T05:18:59;13.55;;;11.80;;
53062;SDS011;40529;52.172;10.548;2023-08-21T05:21:25;15.63;;;13.60;;
53062;SDS011;40529;52.172;10.548;2023-08-21T05:23:51;15.48;;;13.35;;
53062;SDS011;40529;52.172;10.548;2023-08-21T05:26:18;20.15;;;14.30;;
53062;SDS011;40529;52.172;10.548;2023-08-21T05:28:44;17.83;;;12.98;;
53062;SDS011;40529;52.172;10.548;2023-08-21T05:31:10;15.57;;;13.10;;
53062;SDS011;40529;52.172;10.548;2023-08-21T05:33:36;16.77;;;12.35;;
53062;SDS011;40529;52.172;10.548;2023-08-21T05:36:02;18.20;;;12.95;;
53062;SDS011;40529;52.172;10.548;2023-08-21T05:38:28;16.35;;;12.88;;
53062;SDS011;40529;52.172;10.548;2023-08-21T05:40:54;17.58;;;11.95;;
53062;SDS011;40529;52.172;10.548;2023-08-21T05:43:20;15.93;;;11.82;;
53062;SDS011;40529;52.172;10.548;2023-08-21T05:45:46;18.05;;;11.98;;
53062;SDS011;40529;52.172;10.548;2023-08-21T05:48:13;16.00;;;10.60;;
53062;SDS011;40529;52.172;10.548;2023-08-21T05:50:39;16.52;;;9.82;;
53062;SDS011;40529;52.172;10.548;2023-08-21T05:53:05;11.50;;;8.90;;
53062;SDS011;40529;52.172;10.548;2023-08-21T05:55:31;13.10;;;8.80;;
53062;SDS011;40529;52.172;10.548;2023-08-21T05:57:57;16.05;;;8.70;;
53062;SDS011;40529;52.172;10.548;2023-08-21T06:00:23;10.77;;;8.25;;
53062;SDS011;40529;52.172;10.548;2023-08-21T06:02:49;10.20;;;7.93;;
53062;SDS011;40529;52.172;10.548;2023-08-21T06:05:15;13.90;;;8.55;;
53062;SDS011;40529;52.172;10.548;2023-08-21T06:07:41;13.23;;;9.05;;
53062;SDS011;40529;52.172;10.548;2023-08-21T06:10:08;13.38;;;8.82;;
53062;SDS011;40529;52.172;10.548;2023-08-21T06:12:39;12.25;;;8.52;;
53062;SDS011;40529;52.172;10.548;2023-08-21T06:15:05;14.27;;;8.88;;
53062;SDS011;40529;52.172;10.548;2023-08-21T06:17:35;13.45;;;8.50;;
53062;SDS011;40529;52.172;10.548;2023-08-21T06:20:01;15.25;;;8.80;;
53062;SDS011;40529;52.172;10.548;2023-08-21T06:22:28;14.48;;;7.82;;
53062;SDS011;40529;52.172;10.548;2023-08-21T06:24:54;13.48;;;8.88;;
53062;SDS011;40529;52.172;10.548;2023-08-21T06:27:20;12.73;;;7.82;;
53062;SDS011;40529;52.172;10.548;2023-08-21T06:29:46;13.55;;;7.93;;
53062;SDS011;40529;52.172;10.548;2023-08-21T06:32:12;11.75;;;8.25;;
53062;SDS011;40529;52.172;10.548;2023-08-21T06:34:38;13.50;;;8.10;;
53062;SDS011;40529;52.172;10.548;2023-08-21T06:37:04;17.33;;;7.72;;
53062;SDS011;40529;52.172;10.548;2023-08-21T06:39:30;15.00;;;8.52;;
53062;SDS011;40529;52.172;10.548;2023-08-21T06:41:56;9.98;;;7.60;;
53062;SDS011;40529;52.172;10.548;2023-08-21T06:44:22;11.52;;;7.50;;
53062;SDS011;40529;52.172;10.548;2023-08-21T06:46:48;11.55;;;7.35;;
53062;SDS011;40529;52.172;10.548;2023-08-21T06:49:14;16.92;;;7.70;;
53062;SDS011;40529;52.172;10.548;2023-08-21T06:51:40;11.20;;;6.95;;
53062;SDS011;40529;52.172;10.548;2023-08-21T06:54:06;9.15;;;6.35;;
53062;SDS011;40529;52.172;10.548;2023-08-21T06:56:32;11.50;;;6.68;;
53062;SDS011;40529;52.172;10.548;2023-08-21T06:58:58;9.73;;;6.30;;
53062;SDS011;40529;52.172;10.548;2023-08-21T07:01:24;13.65;;;6.88;;
53062;SDS011;40529;52.172;10.548;2023-08-21T07:03:50;11.02;;;5.93;;
53062;SDS011;40529;52.172;10.548;2023-08-21T07:06:16;10.40;;;5.90;;
53062;SDS011;40529;52.172;10.548;2023-08-21T07:08:42;8.18;;;5.65;;
53062;SDS011;40529;52.172;10.548;2023-08-21T07:11:08;9.90;;;5.90;;
53062;SDS011;40529;52.172;10.548;2023-08-21T07:13:35;10.02;;;5.57;;
53062;SDS011;40529;52.172;10.548;2023-08-21T07:16:01;10.85;;;5.60;;
53062;SDS011;40529;52.172;10.548;2023-08-21T07:18:28;9.90;;;5.30;;
53062;SDS011;40529;52.172;10.548;2023-08-21T07:20:54;8.02;;;5.15;;
53062;SDS011;40529;52.172;10.548;2023-08-21T07:23:20;8.55;;;5.03;;
53062;SDS011;40529;52.172;10.548;2023-08-21T07:25:46;9.35;;;5.43;;
53062;SDS011;40529;52.172;10.548;2023-08-21T07:28:12;9.20;;;4.80;;
53062;SDS011;40529;52.172;10.548;2023-08-21T07:30:38;9.85;;;4.55;;
53062;SDS011;40529;52.172;10.548;2023-08-21T07:33:05;7.43;;;4.43;;
53062;SDS011;40529;52.172;10.548;2023-08-21T07:35:31;9.70;;;4.95;;
53062;SDS011;40529;52.172;10.548;2023-08-21T07:37:58;7.97;;;3.85;;
53062;SDS011;40529;52.172;10.548;2023-08-21T07:40:24;6.75;;;3.63;;
53062;SDS011;40529;52.172;10.548;2023-08-21T07:42:50;7.18;;;3.80;;
53062;SDS011;40529;52.172;10.548;2023-08-21T07:45:16;6.00;;;3.28;;
53062;SDS011;40529;52.172;10.548;2023-08-21T07:47:42;8.73;;;3.50;;
53062;SDS011;40529;52.172;10.548;2023-08-21T07:50:08;8.18;;;3.53;;
53062;SDS011;40529;52.172;10.548;2023-08-21T07:52:35;6.82;;;3.00;;
53062;SDS011;40529;52.172;10.548;2023-08-21T07:55:01;3.85;;;2.60;;
53062;SDS011;40529;52.172;10.548;2023-08-21T07:57:28;8.70;;;3.08;;
53062;SDS011;40529;52.172;10.548;2023-08-21T07:59:54;5.78;;;2.80;;
53062;SDS011;40529;52.172;10.548;2023-08-21T08:02:20;8.18;;;2.53;;
53062;SDS011;40529;52.172;10.548;2023-08-21T08:04:46;10.27;;;2.83;;
53062;SDS011;40529;52.172;10.548;2023-08-21T08:07:12;8.15;;;2.78;;
53062;SDS011;40529;52.172;10.548;2023-08-21T08:09:39;4.78;;;2.25;;
53062;SDS011;40529;52.172;10.548;2023-08-21T08:12:05;10.18;;;2.60;;
53062;SDS011;40529;52.172;10.548;2023-08-21T08:14:31;6.50;;;2.17;;
53062;SDS011;40529;52.172;10.548;2023-08-21T08:16:57;5.93;;;2.25;;
53062;SDS011;40529;52.172;10.548;2023-08-21T08:19:23;6.13;;;2.47;;
53062;SDS011;40529;52.172;10.548;2023-08-21T08:21:49;4.93;;;1.83;;
53062;SDS011;40529;52.172;10.548;2023-08-21T08:24:15;4.53;;;1.60;;
53062;SDS011;40529;52.172;10.548;2023-08-21T08:26:41;9.85;;;4.43;;
53062;SDS011;40529;52.172;10.548;2023-08-21T08:29:08;5.88;;;2.00;;
53062;SDS011;40529;52.172;10.548;2023-08-21T08:31:34;7.60;;;2.00;;
53062;SDS011;40529;52.172;10.548;2023-08-21T08:34:00;4.07;;;1.67;;
53062;SDS011;40529;52.172;10.548;2023-08-21T08:36:26;5.32;;;1.90;;
53062;SDS011;40529;52.172;10.548;2023-08-21T08:38:52;6.18;;;2.08;;
53062;SDS011;40529;52.172;10.548;2023-08-21T08:41:25;6.55;;;2.03;;
53062;SDS011;40529;52.172;10.548;2023-08-21T08:43:54;6.25;;;1.80;;
53062;SDS011;40529;52.172;10.548;2023-08-21T08:46:23;4.72;;;1.75;;
53062;SDS011;40529;52.172;10.548;2023-08-21T08:48:49;4.18;;;1.98;;
53062;SDS011;40529;52.172;10.548;2023-08-21T08:51:15;4.78;;;1.88;;
53062;SDS011;40529;52.172;10.548;2023-08-21T08:53:42;6.45;;;2.25;;
53062;SDS011;40529;52.172;10.548;2023-08-21T08:56:08;5.32;;;2.22;;
53062;SDS011;40529;52.172;10.548;2023-08-21T08:58:34;3.85;;;1.88;;
53062;SDS011;40529;52.172;10.548;2023-08-21T09:01:00;4.93;;;1.80;;
53062;SDS011;40529;52.172;10.548;2023-08-21T09:03:27;5.32;;;2.40;;
53062;SDS011;40529;52.172;10.548;2023-08-21T09:05:53;6.22;;;2.10;;
53062;SDS011;40529;52.172;10.548;2023-08-21T09:08:19;6.38;;;1.90;;
53062;SDS011;40529;52.172;10.548;2023-08-21T09:10:45;6.03;;;2.13;;
53062;SDS011;40529;52.172;10.548;2023-08-21T09:15:38;3.85;;;1.70;;
53062;SDS011;40529;52.172;10.548;2023-08-21T09:18:04;6.78;;;1.80;;
53062;SDS011;40529;52.172;10.548;2023-08-21T09:20:34;3.20;;;1.67;;
53062;SDS011;40529;52.172;10.548;2023-08-21T09:23:00;6.47;;;1.90;;
53062;SDS011;40529;52.172;10.548;2023-08-21T09:25:28;4.40;;;2.00;;
53062;SDS011;40529;52.172;10.548;2023-08-21T09:27:59;3.83;;;1.60;;
53062;SDS011;40529;52.172;10.548;2023-08-21T09:30:25;6.20;;;2.25;;
53062;SDS011;40529;52.172;10.548;2023-08-21T09:32:52;3.17;;;1.70;;
53062;SDS011;40529;52.172;10.548;2023-08-21T09:35:19;4.70;;;2.08;;
53062;SDS011;40529;52.172;10.548;2023-08-21T09:37:48;5.18;;;2.17;;
53062;SDS011;40529;52.172;10.548;2023-08-21T09:40:17;5.05;;;2.25;;
53062;SDS011;40529;52.172;10.548;2023-08-21T09:42:43;6.47;;;2.67;;
53062;SDS011;40529;52.172;10.548;2023-08-21T09:45:09;3.58;;;1.83;;
53062;SDS011;40529;52.172;10.548;2023-08-21T09:47:36;5.68;;;2.25;;
53062;SDS011;40529;52.172;10.548;2023-08-21T09:50:06;4.30;;;2.10;;
53062;SDS011;40529;52.172;10.548;2023-08-21T09:52:32;8.35;;;2.20;;
53062;SDS011;40529;52.172;10.548;2023-08-21T09:54:58;3.63;;;1.70;;
53062;SDS011;40529;52.172;10.548;2023-08-21T09:57:24;4.35;;;1.95;;
53062;SDS011;40529;52.172;10.548;2023-08-21T09:59:51;4.70;;;2.20;;
53062;SDS011;40529;52.172;10.548;2023-08-21T10:02:18;6.15;;;1.70;;
53062;SDS011;40529;52.172;10.548;2023-08-21T10:04:44;5.35;;;1.50;;
53062;SDS011;40529;52.172;10.548;2023-08-21T10:07:11;6.57;;;2.38;;
53062;SDS011;40529;52.172;10.548;2023-08-21T10:09:39;6.68;;;2.33;;
53062;SDS011;40529;52.172;10.548;2023-08-21T10:12:06;6.57;;;2.03;;
53062;SDS011;40529;52.172;10.548;2023-08-21T10:14:34;4.75;;;1.58;;
53062;SDS011;40529;52.172;10.548;2023-08-21T10:17:01;4.93;;;1.80;;
53062;SDS011;40529;52.172;10.548;2023-08-21T10:19:31;5.18;;;1.77;;
53062;SDS011;40529;52.172;10.548;2023-08-21T10:21:57;4.05;;;1.55;;
53062;SDS011;40529;52.172;10.548;2023-08-21T10:24:27;3.80;;;1.17;;
53062;SDS011;40529;52.172;10.548;2023-08-21T10:26:54;4.90;;;1.20;;
53062;SDS011;40529;52.172;10.548;2023-08-21T10:29:20;4.38;;;1.52;;
53062;SDS011;40529;52.172;10.548;2023-08-21T10:31:46;4.97;;;1.75;;
53062;SDS011;40529;52.172;10.548;2023-08-21T10:34:25;7.88;;;1.50;;
53062;SDS011;40529;52.172;10.548;2023-08-21T10:39:26;5.68;;;2.10;;
53062;SDS011;40529;52.172;10.548;2023-08-21T10:50:00;6.40;;;1.80;;
53062;SDS011;40529;52.172;10.548;2023-08-21T10:54:53;8.48;;;2.40;;
53062;SDS011;40529;52.172;10.548;2023-08-21T10:57:20;4.40;;;2.10;;
53062;SDS011;40529;52.172;10.548;2023-08-21T11:00:28;5.43;;;2.15;;
53062;SDS011;40529;52.172;10.548;2023-08-21T11:02:36;3.95;;;2.00;;
53062;SDS011;40529;52.172;10.548;2023-08-21T11:05:03;4.30;;;2.40;;
53062;SDS011;40529;52.172;10.548;2023-08-21T11:07:29;5.50;;;2.03;;
53062;SDS011;40529;52.172;10.548;2023-08-21T11:09:56;4.93;;;1.92;;
53062;SDS011;40529;52.172;10.548;2023-08-21T11:12:22;7.07;;;1.77;;
53062;SDS011;40529;52.172;10.548;2023-08-21T11:14:49;4.93;;;1.40;;
53062;SDS011;40529;52.172;10.548;2023-08-21T11:17:15;2.95;;;1.38;;
53062;SDS011;40529;52.172;10.548;2023-08-21T11:19:43;5.80;;;1.65;;
53062;SDS011;40529;52.172;10.548;2023-08-21T11:22:11;4.28;;;1.52;;
53062;SDS011;40529;52.172;10.548;2023-08-21T11:27:21;4.85;;;1.50;;
53062;SDS011;40529;52.172;10.548;2023-08-21T11:29:50;5.55;;;1.27;;
53062;SDS011;40529;52.172;10.548;2023-08-21T11:32:20;7.40;;;1.50;;
53062;SDS011;40529;52.172;10.548;2023-08-21T11:34:50;6.25;;;1.30;;
53062;SDS011;40529;52.172;10.548;2023-08-21T11:37:17;4.22;;;1.05;;
53062;SDS011;40529;52.172;10.548;2023-08-21T11:39:45;4.95;;;0.93;;
53062;SDS011;40529;52.172;10.548;2023-08-21T11:42:12;5.45;;;1.25;;
53062;SDS011;40529;52.172;10.548;2023-08-21T11:44:46;5.47;;;1.30;;
53062;SDS011;40529;52.172;10.548;2023-08-21T11:47:12;4.28;;;1.00;;
53062;SDS011;40529;52.172;10.548;2023-08-21T11:49:42;7.18;;;1.40;;
53062;SDS011;40529;52.172;10.548;2023-08-21T11:52:09;4.32;;;2.05;;
53062;SDS011;40529;52.172;10.548;2023-08-21T11:54:35;3.47;;;1.13;;
53062;SDS011;40529;52.172;10.548;2023-08-21T11:57:05;3.20;;;1.27;;
53062;SDS011;40529;52.172;10.548;2023-08-21T11:59:31;4.75;;;1.52;;
53062;SDS011;40529;52.172;10.548;2023-08-21T12:01:57;4.65;;;1.67;;
53062;SDS011;40529;52.172;10.548;2023-08-21T12:04:24;3.55;;;1.20;;
53062;SDS011;40529;52.172;10.548;2023-08-21T12:06:50;3.90;;;1.17;;
53062;SDS011;40529;52.172;10.548;2023-08-21T12:09:16;4.13;;;1.58;;
53062;SDS011;40529;52.172;10.548;2023-08-21T12:11:44;4.97;;;1.48;;
53062;SDS011;40529;52.172;10.548;2023-08-21T12:14:10;4.82;;;1.52;;
53062;SDS011;40529;52.172;10.548;2023-08-21T12:16:36;4.63;;;1.30;;
53062;SDS011;40529;52.172;10.548;2023-08-21T12:19:02;7.45;;;1.42;;
53062;SDS011;40529;52.172;10.548;2023-08-21T12:21:29;5.18;;;1.27;;
53062;SDS011;40529;52.172;10.548;2023-08-21T12:23:55;5.95;;;1.30;;
53062;SDS011;40529;52.172;10.548;2023-08-21T12:26:21;8.73;;;1.38;;
53062;SDS011;40529;52.172;10.548;2023-08-21T12:28:48;3.38;;;1.05;;
53062;SDS011;40529;52.172;10.548;2023-08-21T12:31:14;4.25;;;1.15;;
53062;SDS011;40529;52.172;10.548;2023-08-21T12:33:40;4.95;;;1.13;;
53062;SDS011;40529;52.172;10.548;2023-08-21T12:36:07;4.00;;;1.15;;
53062;SDS011;40529;52.172;10.548;2023-08-21T12:38:36;3.78;;;1.40;;
53062;SDS011;40529;52.172;10.548;2023-08-21T12:41:02;4.22;;;1.13;;
53062;SDS011;40529;52.172;10.548;2023-08-21T12:43:28;3.47;;;1.42;;
53062;SDS011;40529;52.172;10.548;2023-08-21T12:45:54;3.92;;;1.33;;
53062;SDS011;40529;52.172;10.548;2023-08-21T12:48:21;4.00;;;1.35;;
53062;SDS011;40529;52.172;10.548;2023-08-21T12:50:47;8.20;;;1.33;;
53062;SDS011;40529;52.172;10.548;2023-08-21T12:53:13;4.55;;;1.45;;
53062;SDS011;40529;52.172;10.548;2023-08-21T12:55:39;3.20;;;1.00;;
53062;SDS011;40529;52.172;10.548;2023-08-21T12:58:05;4.25;;;1.55;;
53062;SDS011;40529;52.172;10.548;2023-08-21T13:00:31;8.35;;;1.10;;
53062;SDS011;40529;52.172;10.548;2023-08-21T13:02:57;4.28;;;1.40;;
53062;SDS011;40529;52.172;10.548;2023-08-21T13:05:23;5.60;;;1.40;;
53062;SDS011;40529;52.172;10.548;2023-08-21T13:07:49;3.95;;;1.08;;
53062;SDS011;40529;52.172;10.548;2023-08-21T13:10:15;6.32;;;1.20;;
53062;SDS011;40529;52.172;10.548;2023-08-21T13:12:41;2.17;;;1.10;;
53062;SDS011;40529;52.172;10.548;2023-08-21T13:15:07;4.47;;;1.35;;
53062;SDS011;40529;52.172;10.548;2023-08-21T13:17:34;4.57;;;1.08;;
53062;SDS011;40529;52.172;10.548;2023-08-21T13:20:00;4.20;;;1.05;;
53062;SDS011;40529;52.172;10.548;2023-08-21T13:22:26;6.75;;;1.13;;
53062;SDS011;40529;52.172;10.548;2023-08-21T13:24:52;2.40;;;0.95;;
53062;SDS011;40529;52.172;10.548;2023-08-21T13:27:18;6.05;;;1.20;;
53062;SDS011;40529;52.172;10.548;2023-08-21T13:29:45;4.97;;;1.50;;
53062;SDS011;40529;52.172;10.548;2023-08-21T13:32:11;4.38;;;1.23;;
53062;SDS011;40529;52.172;10.548;2023-08-21T13:34:37;5.13;;;1.20;;
53062;SDS011;40529;52.172;10.548;2023-08-21T13:37:03;5.45;;;1.33;;
53062;SDS011;40529;52.172;10.548;2023-08-21T13:39:29;4.70;;;1.30;;
53062;SDS011;40529;52.172;10.548;2023-08-21T13:41:56;4.78;;;1.20;;
53062;SDS011;40529;52.172;10.548;2023-08-21T13:44:22;4.75;;;1.40;;
53062;SDS011;40529;52.172;10.548;2023-08-21T13:46:48;5.20;;;1.45;;
53062;SDS011;40529;52.172;10.548;2023-08-21T13:49:14;6.13;;;1.20;;
53062;SDS011;40529;52.172;10.548;2023-08-21T13:51:40;4.30;;;0.90;;
53062;SDS011;40529;52.172;10.548;2023-08-21T13:54:06;2.67;;;0.85;;
53062;SDS011;40529;52.172;10.548;2023-08-21T13:56:32;4.03;;;1.02;;
53062;SDS011;40529;52.172;10.548;2023-08-21T13:58:58;4.45;;;1.08;;
53062;SDS011;40529;52.172;10.548;2023-08-21T14:01:24;4.38;;;0.98;;
53062;SDS011;40529;52.172;10.548;2023-08-21T14:03:50;3.40;;;1.02;;
53062;SDS011;40529;52.172;10.548;2023-08-21T14:06:16;2.85;;;0.82;;
53062;SDS011;40529;52.172;10.548;2023-08-21T14:08:43;4.47;;;1.48;;
53062;SDS011;40529;52.172;10.548;2023-08-21T14:11:09;4.30;;;1.13;;
53062;SDS011;40529;52.172;10.548;2023-08-21T14:13:35;4.53;;;1.17;;
53062;SDS011;40529;52.172;10.548;2023-08-21T14:16:01;6.13;;;1.38;;
53062;SDS011;40529;52.172;10.548;2023-08-21T14:18:27;6.00;;;1.48;;
53062;SDS011;40529;52.172;10.548;2023-08-21T14:20:53;5.93;;;1.38;;
53062;SDS011;40529;52.172;10.548;2023-08-21T14:23:19;6.65;;;1.10;;
53062;SDS011;40529;52.172;10.548;2023-08-21T14:25:45;5.20;;;1.20;;
53062;SDS011;40529;52.172;10.548;2023-08-21T14:28:11;2.88;;;1.08;;
53062;SDS011;40529;52.172;10.548;2023-08-21T14:30:38;3.60;;;1.10;;
53062;SDS011;40529;52.172;10.548;2023-08-21T14:33:04;3.97;;;1.00;;
53062;SDS011;40529;52.172;10.548;2023-08-21T14:35:30;4.90;;;1.52;;
53062;SDS011;40529;52.172;10.548;2023-08-21T14:37:56;4.63;;;1.00;;
53062;SDS011;40529;52.172;10.548;2023-08-21T14:40:22;6.25;;;1.27;;
53062;SDS011;40529;52.172;10.548;2023-08-21T14:42:48;7.53;;;1.38;;
53062;SDS011;40529;52.172;10.548;2023-08-21T14:45:14;5.93;;;1.50;;
53062;SDS011;40529;52.172;10.548;2023-08-21T14:47:40;3.58;;;1.05;;
53062;SDS011;40529;52.172;10.548;2023-08-21T14:50:06;5.30;;;0.98;;